sensor_id;sensor_type;location;lat;lon;timestamp;P1;durP1;ratioP1;P2;durP2;ratioP2
19402;SDS011;9837;48.888;8.998;2023-12-22T00:00:33;4.33;;;1.30;;
19402;SDS011;9837;48.888;8.998;2023-12-22T00:02:59;5.87;;;1.37;;
19402;SDS011;9837;48.888;8.998;2023-12-22T00:05:25;7.53;;;2.07;;
19402;SDS011;9837;48.888;8.998;2023-12-22T00:07:51;10.70;;;2.30;;
19402;SDS011;9837;48.888;8.998;2023-12-22T00:10:17;7.13;;;2.10;;
19402;SDS011;9837;48.888;8.998;2023-12-22T00:12:43;7.77;;;2.37;;
19402;SDS011;9837;48.888;8.998;2023-12-22T00:15:09;9.87;;;2.60;;
19402;SDS011;9837;48.888;8.998;2023-12-22T00:17:35;9.30;;;2.23;;
19402;SDS011;9837;48.888;8.998;2023-12-22T00:20:01;13.23;;;2.63;;
19402;SDS011;9837;48.888;8.998;2023-12-22T00:22:28;9.20;;;2.53;;
19402;SDS011;9837;48.888;8.998;2023-12-22T00:25:13;5.77;;;1.90;;
19402;SDS011;9837;48.888;8.998;2023-12-22T00:28:02;8.70;;;1.50;;
19402;SDS011;9837;48.888;8.998;2023-12-22T00:30:34;5.37;;;1.60;;
19402;SDS011;9837;48.888;8.998;2023-12-22T00:33:09;7.57;;;1.80;;
19402;SDS011;9837;48.888;8.998;2023-12-22T00:36:18;5.63;;;2.10;;
19402;SDS011;9837;48.888;8.998;2023-12-22T00:39:03;3.43;;;1.30;;
19402;SDS011;9837;48.888;8.998;2023-12-22T00:42:20;5.20;;;1.83;;
19402;SDS011;9837;48.888;8.998;2023-12-22T00:44:46;8.80;;;1.93;;
19402;SDS011;9837;48.888;8.998;2023-12-22T00:47:17;5.43;;;2.00;;
19402;SDS011;9837;48.888;8.998;2023-12-22T00:49:53;6.00;;;2.10;;
19402;SDS011;9837;48.888;8.998;2023-12-22T00:52:51;9.77;;;2.07;;
19402;SDS011;9837;48.888;8.998;2023-12-22T00:59:34;4.73;;;1.90;;
19402;SDS011;9837;48.888;8.998;2023-12-22T01:02:07;6.30;;;2.40;;
19402;SDS011;9837;48.888;8.998;2023-12-22T01:04:33;5.90;;;1.80;;
19402;SDS011;9837;48.888;8.998;2023-12-22T01:07:07;4.83;;;2.10;;
19402;SDS011;9837;48.888;8.998;2023-12-22T01:09:52;4.73;;;1.63;;
19402;SDS011;9837;48.888;8.998;2023-12-22T01:12:19;7.13;;;2.10;;
19402;SDS011;9837;48.888;8.998;2023-12-22T01:14:44;6.77;;;1.93;;
19402;SDS011;9837;48.888;8.998;2023-12-22T01:17:11;7.03;;;2.10;;
19402;SDS011;9837;48.888;8.998;2023-12-22T01:19:37;8.63;;;1.90;;
19402;SDS011;9837;48.888;8.998;2023-12-22T01:22:02;6.50;;;1.80;;
19402;SDS011;9837;48.888;8.998;2023-12-22T01:24:28;6.63;;;1.97;;
19402;SDS011;9837;48.888;8.998;2023-12-22T01:26:54;8.40;;;2.27;;
19402;SDS011;9837;48.888;8.998;2023-12-22T01:29:20;8.23;;;2.17;;
19402;SDS011;9837;48.888;8.998;2023-12-22T01:31:46;4.77;;;1.70;;
19402;SDS011;9837;48.888;8.998;2023-12-22T01:34:12;7.57;;;1.33;;
19402;SDS011;9837;48.888;8.998;2023-12-22T01:36:44;5.27;;;1.87;;
19402;SDS011;9837;48.888;8.998;2023-12-22T01:39:12;6.33;;;2.03;;
19402;SDS011;9837;48.888;8.998;2023-12-22T01:41:38;6.83;;;1.97;;
19402;SDS011;9837;48.888;8.998;2023-12-22T01:44:04;4.07;;;1.20;;
19402;SDS011;9837;48.888;8.998;2023-12-22T01:52:41;3.37;;;1.23;;
19402;SDS011;9837;48.888;8.998;2023-12-22T01:55:11;2.50;;;1.03;;
19402;SDS011;9837;48.888;8.998;2023-12-22T01:57:42;4.53;;;1.30;;
19402;SDS011;9837;48.888;8.998;2023-12-22T02:00:09;3.27;;;1.00;;
19402;SDS011;9837;48.888;8.998;2023-12-22T02:02:45;5.57;;;1.33;;
19402;SDS011;9837;48.888;8.998;2023-12-22T02:08:14;3.30;;;1.00;;
19402;SDS011;9837;48.888;8.998;2023-12-22T02:10:43;2.67;;;1.20;;
19402;SDS011;9837;48.888;8.998;2023-12-22T02:13:28;3.13;;;1.00;;
19402;SDS011;9837;48.888;8.998;2023-12-22T02:18:52;3.47;;;1.07;;
19402;SDS011;9837;48.888;8.998;2023-12-22T02:21:21;4.83;;;1.27;;
19402;SDS011;9837;48.888;8.998;2023-12-22T02:23:50;3.50;;;1.00;;
19402;SDS011;9837;48.888;8.998;2023-12-22T02:26:25;2.43;;;0.90;;
19402;SDS011;9837;48.888;8.998;2023-12-22T02:28:58;4.93;;;1.07;;
19402;SDS011;9837;48.888;8.998;2023-12-22T02:31:40;3.00;;;1.20;;
19402;SDS011;9837;48.888;8.998;2023-12-22T02:35:14;2.80;;;1.00;;
19402;SDS011;9837;48.888;8.998;2023-12-22T02:37:42;2.97;;;1.30;;
19402;SDS011;9837;48.888;8.998;2023-12-22T02:40:15;3.43;;;1.20;;
19402;SDS011;9837;48.888;8.998;2023-12-22T02:42:44;1.63;;;1.00;;
19402;SDS011;9837;48.888;8.998;2023-12-22T02:45:25;4.37;;;1.43;;
19402;SDS011;9837;48.888;8.998;2023-12-22T02:51:20;6.23;;;1.80;;
19402;SDS011;9837;48.888;8.998;2023-12-22T02:53:48;3.70;;;1.37;;
19402;SDS011;9837;48.888;8.998;2023-12-22T03:03:29;4.00;;;1.40;;
19402;SDS011;9837;48.888;8.998;2023-12-22T03:09:29;8.60;;;2.10;;
19402;SDS011;9837;48.888;8.998;2023-12-22T03:15:24;4.67;;;1.50;;
19402;SDS011;9837;48.888;8.998;2023-12-22T03:17:54;3.37;;;1.37;;
19402;SDS011;9837;48.888;8.998;2023-12-22T03:20:20;7.77;;;1.77;;
19402;SDS011;9837;48.888;8.998;2023-12-22T03:29:13;7.53;;;1.60;;
19402;SDS011;9837;48.888;8.998;2023-12-22T03:32:14;5.10;;;1.50;;
19402;SDS011;9837;48.888;8.998;2023-12-22T03:34:43;4.13;;;1.20;;
19402;SDS011;9837;48.888;8.998;2023-12-22T03:37:31;10.47;;;1.73;;
19402;SDS011;9837;48.888;8.998;2023-12-22T03:49:39;5.97;;;1.40;;
19402;SDS011;9837;48.888;8.998;2023-12-22T03:52:05;4.73;;;1.83;;
19402;SDS011;9837;48.888;8.998;2023-12-22T03:54:49;5.60;;;1.97;;
19402;SDS011;9837;48.888;8.998;2023-12-22T03:57:34;6.07;;;1.27;;
19402;SDS011;9837;48.888;8.998;2023-12-22T04:00:58;7.33;;;1.80;;
19402;SDS011;9837;48.888;8.998;2023-12-22T04:03:56;5.73;;;2.03;;
19402;SDS011;9837;48.888;8.998;2023-12-22T04:06:25;6.27;;;1.83;;
19402;SDS011;9837;48.888;8.998;2023-12-22T04:08:52;4.80;;;1.97;;
19402;SDS011;9837;48.888;8.998;2023-12-22T04:11:24;4.03;;;1.73;;
19402;SDS011;9837;48.888;8.998;2023-12-22T04:14:43;7.97;;;1.60;;
19402;SDS011;9837;48.888;8.998;2023-12-22T04:24:35;10.07;;;2.30;;
19402;SDS011;9837;48.888;8.998;2023-12-22T04:28:01;6.57;;;1.63;;
19402;SDS011;9837;48.888;8.998;2023-12-22T04:31:31;8.47;;;2.33;;
19402;SDS011;9837;48.888;8.998;2023-12-22T04:34:14;9.23;;;1.83;;
19402;SDS011;9837;48.888;8.998;2023-12-22T04:40:45;2.40;;;1.40;;
19402;SDS011;9837;48.888;8.998;2023-12-22T04:43:14;8.47;;;1.90;;
19402;SDS011;9837;48.888;8.998;2023-12-22T04:52:53;8.80;;;1.70;;
19402;SDS011;9837;48.888;8.998;2023-12-22T04:56:17;6.27;;;1.40;;
19402;SDS011;9837;48.888;8.998;2023-12-22T05:01:58;4.47;;;1.60;;
19402;SDS011;9837;48.888;8.998;2023-12-22T05:04:28;6.47;;;1.87;;
19402;SDS011;9837;48.888;8.998;2023-12-22T05:14:09;13.50;;;2.27;;
19402;SDS011;9837;48.888;8.998;2023-12-22T05:16:47;8.20;;;1.97;;
19402;SDS011;9837;48.888;8.998;2023-12-22T05:19:36;16.87;;;2.50;;
19402;SDS011;9837;48.888;8.998;2023-12-22T05:22:06;11.07;;;2.80;;
19402;SDS011;9837;48.888;8.998;2023-12-22T05:35:37;9.27;;;2.73;;
19402;SDS011;9837;48.888;8.998;2023-12-22T05:38:08;7.37;;;2.20;;
19402;SDS011;9837;48.888;8.998;2023-12-22T05:40:34;12.37;;;2.80;;
19402;SDS011;9837;48.888;8.998;2023-12-22T05:43:25;11.73;;;2.53;;
19402;SDS011;9837;48.888;8.998;2023-12-22T05:49:16;9.73;;;2.20;;
19402;SDS011;9837;48.888;8.998;2023-12-22T05:51:44;13.27;;;2.60;;
19402;SDS011;9837;48.888;8.998;2023-12-22T05:54:13;9.80;;;3.03;;
19402;SDS011;9837;48.888;8.998;2023-12-22T05:56:58;12.13;;;2.63;;
19402;SDS011;9837;48.888;8.998;2023-12-22T05:59:33;5.73;;;1.63;;
19402;SDS011;9837;48.888;8.998;2023-12-22T06:11:57;9.17;;;2.23;;
19402;SDS011;9837;48.888;8.998;2023-12-22T06:14:22;6.97;;;2.50;;
19402;SDS011;9837;48.888;8.998;2023-12-22T06:20:30;10.73;;;2.70;;
19402;SDS011;9837;48.888;8.998;2023-12-22T06:25:33;15.87;;;3.23;;
19402;SDS011;9837;48.888;8.998;2023-12-22T06:28:00;9.17;;;2.73;;
19402;SDS011;9837;48.888;8.998;2023-12-22T06:31:33;15.13;;;2.83;;
19402;SDS011;9837;48.888;8.998;2023-12-22T06:34:19;8.80;;;2.43;;
19402;SDS011;9837;48.888;8.998;2023-12-22T06:39:50;11.77;;;3.50;;
19402;SDS011;9837;48.888;8.998;2023-12-22T06:55:28;10.93;;;2.20;;
19402;SDS011;9837;48.888;8.998;2023-12-22T06:58:14;4.73;;;2.13;;
19402;SDS011;9837;48.888;8.998;2023-12-22T07:00:46;12.53;;;2.50;;
19402;SDS011;9837;48.888;8.998;2023-12-22T07:06:40;14.33;;;3.00;;
19402;SDS011;9837;48.888;8.998;2023-12-22T07:28:20;12.50;;;3.13;;
19402;SDS011;9837;48.888;8.998;2023-12-22T07:34:35;6.27;;;2.47;;
19402;SDS011;9837;48.888;8.998;2023-12-22T07:37:42;10.73;;;2.60;;
19402;SDS011;9837;48.888;8.998;2023-12-22T07:44:45;11.53;;;2.50;;
19402;SDS011;9837;48.888;8.998;2023-12-22T07:47:54;11.10;;;2.50;;
19402;SDS011;9837;48.888;8.998;2023-12-22T07:54:55;12.07;;;3.00;;
19402;SDS011;9837;48.888;8.998;2023-12-22T07:58:00;8.80;;;2.77;;
19402;SDS011;9837;48.888;8.998;2023-12-22T08:00:50;13.27;;;2.47;;
19402;SDS011;9837;48.888;8.998;2023-12-22T08:20:20;18.07;;;3.50;;
19402;SDS011;9837;48.888;8.998;2023-12-22T08:42:38;25.10;;;4.27;;
19402;SDS011;9837;48.888;8.998;2023-12-22T08:55:43;19.10;;;3.80;;
19402;SDS011;9837;48.888;8.998;2023-12-22T09:16:33;10.83;;;3.13;;
19402;SDS011;9837;48.888;8.998;2023-12-22T09:18:59;19.17;;;4.17;;
19402;SDS011;9837;48.888;8.998;2023-12-22T09:24:54;15.80;;;3.20;;
19402;SDS011;9837;48.888;8.998;2023-12-22T09:30:49;20.60;;;3.50;;
19402;SDS011;9837;48.888;8.998;2023-12-22T09:33:15;14.53;;;3.23;;
19402;SDS011;9837;48.888;8.998;2023-12-22T09:39:03;20.17;;;3.53;;
19402;SDS011;9837;48.888;8.998;2023-12-22T09:41:41;17.57;;;3.43;;
19402;SDS011;9837;48.888;8.998;2023-12-22T09:44:19;17.30;;;3.37;;
19402;SDS011;9837;48.888;8.998;2023-12-22T09:46:46;18.53;;;3.63;;
19402;SDS011;9837;48.888;8.998;2023-12-22T09:49:17;17.00;;;3.43;;
19402;SDS011;9837;48.888;8.998;2023-12-22T09:51:46;14.87;;;3.80;;
19402;SDS011;9837;48.888;8.998;2023-12-22T09:54:13;13.60;;;3.67;;
19402;SDS011;9837;48.888;8.998;2023-12-22T09:56:40;17.40;;;3.40;;
19402;SDS011;9837;48.888;8.998;2023-12-22T09:59:12;23.97;;;4.17;;
19402;SDS011;9837;48.888;8.998;2023-12-22T10:05:15;11.90;;;3.47;;
19402;SDS011;9837;48.888;8.998;2023-12-22T10:07:44;15.60;;;3.30;;
19402;SDS011;9837;48.888;8.998;2023-12-22T10:10:12;17.23;;;3.40;;
19402;SDS011;9837;48.888;8.998;2023-12-22T10:12:39;16.57;;;3.63;;
19402;SDS011;9837;48.888;8.998;2023-12-22T10:18:32;12.13;;;3.27;;
19402;SDS011;9837;48.888;8.998;2023-12-22T10:20:58;16.87;;;3.20;;
19402;SDS011;9837;48.888;8.998;2023-12-22T10:23:25;14.57;;;3.57;;
19402;SDS011;9837;48.888;8.998;2023-12-22T10:26:02;17.93;;;3.67;;
19402;SDS011;9837;48.888;8.998;2023-12-22T10:28:28;16.67;;;4.10;;
19402;SDS011;9837;48.888;8.998;2023-12-22T10:30:58;27.00;;;4.37;;
19402;SDS011;9837;48.888;8.998;2023-12-22T10:33:29;15.17;;;3.23;;
19402;SDS011;9837;48.888;8.998;2023-12-22T10:35:55;17.33;;;3.20;;
19402;SDS011;9837;48.888;8.998;2023-12-22T10:38:21;13.20;;;3.40;;
19402;SDS011;9837;48.888;8.998;2023-12-22T10:40:50;13.50;;;3.20;;
19402;SDS011;9837;48.888;8.998;2023-12-22T10:43:18;13.20;;;3.00;;
19402;SDS011;9837;48.888;8.998;2023-12-22T10:45:46;15.40;;;2.40;;
19402;SDS011;9837;48.888;8.998;2023-12-22T10:48:14;19.17;;;3.43;;
19402;SDS011;9837;48.888;8.998;2023-12-22T10:50:40;13.57;;;2.73;;
19402;SDS011;9837;48.888;8.998;2023-12-22T10:53:12;7.73;;;2.57;;
19402;SDS011;9837;48.888;8.998;2023-12-22T10:55:38;11.90;;;2.27;;
19402;SDS011;9837;48.888;8.998;2023-12-22T10:58:05;8.00;;;2.70;;
19402;SDS011;9837;48.888;8.998;2023-12-22T11:00:32;7.00;;;2.67;;
19402;SDS011;9837;48.888;8.998;2023-12-22T11:03:03;8.67;;;2.17;;
19402;SDS011;9837;48.888;8.998;2023-12-22T11:05:36;8.00;;;2.10;;
19402;SDS011;9837;48.888;8.998;2023-12-22T11:08:18;5.60;;;1.70;;
19402;SDS011;9837;48.888;8.998;2023-12-22T11:10:53;14.47;;;2.97;;
19402;SDS011;9837;48.888;8.998;2023-12-22T11:16:18;7.47;;;2.47;;
19402;SDS011;9837;48.888;8.998;2023-12-22T11:18:55;9.57;;;2.23;;
19402;SDS011;9837;48.888;8.998;2023-12-22T11:21:28;7.33;;;2.20;;
19402;SDS011;9837;48.888;8.998;2023-12-22T11:24:00;7.10;;;2.53;;
19402;SDS011;9837;48.888;8.998;2023-12-22T11:29:51;7.53;;;2.07;;
19402;SDS011;9837;48.888;8.998;2023-12-22T11:33:00;6.20;;;2.07;;
19402;SDS011;9837;48.888;8.998;2023-12-22T11:36:20;8.47;;;2.20;;
19402;SDS011;9837;48.888;8.998;2023-12-22T11:38:49;7.20;;;1.83;;
19402;SDS011;9837;48.888;8.998;2023-12-22T11:41:19;6.30;;;2.03;;
19402;SDS011;9837;48.888;8.998;2023-12-22T11:44:04;6.57;;;2.20;;
19402;SDS011;9837;48.888;8.998;2023-12-22T11:46:40;10.23;;;1.70;;
19402;SDS011;9837;48.888;8.998;2023-12-22T11:49:09;4.23;;;1.67;;
19402;SDS011;9837;48.888;8.998;2023-12-22T11:51:35;5.13;;;1.60;;
19402;SDS011;9837;48.888;8.998;2023-12-22T11:59:55;2.87;;;1.40;;
19402;SDS011;9837;48.888;8.998;2023-12-22T12:02:35;4.40;;;1.33;;
19402;SDS011;9837;48.888;8.998;2023-12-22T12:05:03;5.33;;;1.57;;
19402;SDS011;9837;48.888;8.998;2023-12-22T12:07:49;4.90;;;1.53;;
19402;SDS011;9837;48.888;8.998;2023-12-22T12:10:58;6.53;;;1.73;;
19402;SDS011;9837;48.888;8.998;2023-12-22T12:13:21;2.53;;;1.27;;
19402;SDS011;9837;48.888;8.998;2023-12-22T12:19:10;5.07;;;1.27;;
19402;SDS011;9837;48.888;8.998;2023-12-22T12:21:36;4.17;;;1.10;;
19402;SDS011;9837;48.888;8.998;2023-12-22T12:24:02;2.00;;;1.10;;
19402;SDS011;9837;48.888;8.998;2023-12-22T12:26:30;1.40;;;0.87;;
19402;SDS011;9837;48.888;8.998;2023-12-22T12:28:59;1.33;;;0.80;;
19402;SDS011;9837;48.888;8.998;2023-12-22T12:31:45;2.00;;;1.03;;
19402;SDS011;9837;48.888;8.998;2023-12-22T12:34:10;1.10;;;0.80;;
19402;SDS011;9837;48.888;8.998;2023-12-22T12:36:41;3.23;;;0.83;;
19402;SDS011;9837;48.888;8.998;2023-12-22T12:39:28;1.00;;;0.60;;
19402;SDS011;9837;48.888;8.998;2023-12-22T12:48:43;2.30;;;0.80;;
19402;SDS011;9837;48.888;8.998;2023-12-22T12:51:10;1.40;;;0.93;;
19402;SDS011;9837;48.888;8.998;2023-12-22T12:53:39;1.80;;;0.87;;
19402;SDS011;9837;48.888;8.998;2023-12-22T12:56:17;1.33;;;0.63;;
19402;SDS011;9837;48.888;8.998;2023-12-22T12:58:43;2.33;;;0.50;;
19402;SDS011;9837;48.888;8.998;2023-12-22T13:01:10;0.57;;;0.57;;
19402;SDS011;9837;48.888;8.998;2023-12-22T13:03:53;1.60;;;0.70;;
19402;SDS011;9837;48.888;8.998;2023-12-22T13:06:21;0.77;;;0.53;;
19402;SDS011;9837;48.888;8.998;2023-12-22T13:08:48;1.20;;;0.60;;
19402;SDS011;9837;48.888;8.998;2023-12-22T13:11:20;2.00;;;1.17;;
19402;SDS011;9837;48.888;8.998;2023-12-22T13:13:48;0.70;;;0.70;;
19402;SDS011;9837;48.888;8.998;2023-12-22T13:16:21;0.77;;;0.53;;
19402;SDS011;9837;48.888;8.998;2023-12-22T13:18:52;0.97;;;0.60;;
19402;SDS011;9837;48.888;8.998;2023-12-22T13:21:18;0.50;;;0.50;;
19402;SDS011;9837;48.888;8.998;2023-12-22T13:23:46;1.57;;;0.90;;
19402;SDS011;9837;48.888;8.998;2023-12-22T13:26:21;1.60;;;0.70;;
19402;SDS011;9837;48.888;8.998;2023-12-22T13:28:47;2.63;;;0.80;;
19402;SDS011;9837;48.888;8.998;2023-12-22T13:31:13;3.20;;;0.87;;
19402;SDS011;9837;48.888;8.998;2023-12-22T13:33:40;1.07;;;0.70;;
19402;SDS011;9837;48.888;8.998;2023-12-22T13:36:06;0.67;;;0.57;;
19402;SDS011;9837;48.888;8.998;2023-12-22T13:38:32;0.97;;;0.70;;
19402;SDS011;9837;48.888;8.998;2023-12-22T13:41:06;0.57;;;0.57;;
19402;SDS011;9837;48.888;8.998;2023-12-22T13:43:33;0.77;;;0.70;;
19402;SDS011;9837;48.888;8.998;2023-12-22T13:45:59;1.70;;;0.70;;
19402;SDS011;9837;48.888;8.998;2023-12-22T13:48:25;2.80;;;1.00;;
19402;SDS011;9837;48.888;8.998;2023-12-22T13:50:58;3.07;;;0.77;;
19402;SDS011;9837;48.888;8.998;2023-12-22T13:53:29;2.37;;;0.80;;
19402;SDS011;9837;48.888;8.998;2023-12-22T13:55:58;3.40;;;1.00;;
19402;SDS011;9837;48.888;8.998;2023-12-22T13:58:25;2.50;;;0.83;;
19402;SDS011;9837;48.888;8.998;2023-12-22T14:00:51;1.33;;;0.80;;
19402;SDS011;9837;48.888;8.998;2023-12-22T14:03:18;0.80;;;0.80;;
19402;SDS011;9837;48.888;8.998;2023-12-22T14:05:52;1.60;;;0.57;;
19402;SDS011;9837;48.888;8.998;2023-12-22T14:08:20;0.60;;;0.60;;
19402;SDS011;9837;48.888;8.998;2023-12-22T14:10:47;1.80;;;0.93;;
19402;SDS011;9837;48.888;8.998;2023-12-22T14:13:16;0.97;;;0.70;;
19402;SDS011;9837;48.888;8.998;2023-12-22T14:15:42;0.53;;;0.50;;
19402;SDS011;9837;48.888;8.998;2023-12-22T14:18:11;0.83;;;0.80;;
19402;SDS011;9837;48.888;8.998;2023-12-22T14:20:37;1.03;;;0.80;;
19402;SDS011;9837;48.888;8.998;2023-12-22T14:23:10;0.90;;;0.90;;
19402;SDS011;9837;48.888;8.998;2023-12-22T14:25:41;0.47;;;0.47;;
19402;SDS011;9837;48.888;8.998;2023-12-22T14:28:07;2.10;;;0.90;;
19402;SDS011;9837;48.888;8.998;2023-12-22T14:30:33;0.63;;;0.63;;
19402;SDS011;9837;48.888;8.998;2023-12-22T14:32:59;0.40;;;0.40;;
19402;SDS011;9837;48.888;8.998;2023-12-22T14:35:25;1.07;;;0.73;;
19402;SDS011;9837;48.888;8.998;2023-12-22T14:37:51;0.73;;;0.73;;
19402;SDS011;9837;48.888;8.998;2023-12-22T14:40:17;0.67;;;0.60;;
19402;SDS011;9837;48.888;8.998;2023-12-22T14:42:47;0.90;;;0.67;;
19402;SDS011;9837;48.888;8.998;2023-12-22T14:45:15;0.90;;;0.90;;
19402;SDS011;9837;48.888;8.998;2023-12-22T14:47:48;0.90;;;0.70;;
19402;SDS011;9837;48.888;8.998;2023-12-22T14:50:13;1.90;;;0.87;;
19402;SDS011;9837;48.888;8.998;2023-12-22T14:52:39;0.63;;;0.60;;
19402;SDS011;9837;48.888;8.998;2023-12-22T14:55:05;1.00;;;0.70;;
19402;SDS011;9837;48.888;8.998;2023-12-22T14:57:31;2.23;;;0.90;;
19402;SDS011;9837;48.888;8.998;2023-12-22T15:00:02;0.60;;;0.57;;
19402;SDS011;9837;48.888;8.998;2023-12-22T15:02:31;3.30;;;0.60;;
19402;SDS011;9837;48.888;8.998;2023-12-22T15:04:57;0.50;;;0.50;;
19402;SDS011;9837;48.888;8.998;2023-12-22T15:07:23;1.33;;;0.90;;
19402;SDS011;9837;48.888;8.998;2023-12-22T15:09:49;0.63;;;0.63;;
19402;SDS011;9837;48.888;8.998;2023-12-22T15:12:15;0.70;;;0.70;;
19402;SDS011;9837;48.888;8.998;2023-12-22T15:14:45;0.80;;;0.80;;
19402;SDS011;9837;48.888;8.998;2023-12-22T15:17:20;0.70;;;0.63;;
19402;SDS011;9837;48.888;8.998;2023-12-22T15:19:46;0.83;;;0.80;;
19402;SDS011;9837;48.888;8.998;2023-12-22T15:22:12;1.50;;;0.77;;
19402;SDS011;9837;48.888;8.998;2023-12-22T15:24:39;3.23;;;0.83;;
19402;SDS011;9837;48.888;8.998;2023-12-22T15:27:08;0.87;;;0.87;;
19402;SDS011;9837;48.888;8.998;2023-12-22T15:29:34;35.40;;;29.57;;
19402;SDS011;9837;48.888;8.998;2023-12-22T15:32:00;1.00;;;0.90;;
19402;SDS011;9837;48.888;8.998;2023-12-22T15:34:26;0.80;;;0.80;;
19402;SDS011;9837;48.888;8.998;2023-12-22T15:36:53;2.13;;;1.20;;
19402;SDS011;9837;48.888;8.998;2023-12-22T15:39:19;1.47;;;0.70;;
19402;SDS011;9837;48.888;8.998;2023-12-22T15:41:48;0.80;;;0.80;;
19402;SDS011;9837;48.888;8.998;2023-12-22T15:44:14;2.43;;;1.00;;
19402;SDS011;9837;48.888;8.998;2023-12-22T15:46:40;1.10;;;0.90;;
19402;SDS011;9837;48.888;8.998;2023-12-22T15:49:06;1.07;;;0.87;;
19402;SDS011;9837;48.888;8.998;2023-12-22T15:51:32;1.27;;;0.80;;
19402;SDS011;9837;48.888;8.998;2023-12-22T15:53:59;0.60;;;0.60;;
19402;SDS011;9837;48.888;8.998;2023-12-22T15:56:25;0.70;;;0.70;;
19402;SDS011;9837;48.888;8.998;2023-12-22T15:58:51;1.40;;;0.73;;
19402;SDS011;9837;48.888;8.998;2023-12-22T16:01:17;0.80;;;0.73;;
19402;SDS011;9837;48.888;8.998;2023-12-22T16:03:43;1.93;;;0.43;;
19402;SDS011;9837;48.888;8.998;2023-12-22T16:06:12;0.93;;;0.70;;
19402;SDS011;9837;48.888;8.998;2023-12-22T16:08:38;1.57;;;0.60;;
19402;SDS011;9837;48.888;8.998;2023-12-22T16:11:04;0.67;;;0.67;;
19402;SDS011;9837;48.888;8.998;2023-12-22T16:13:31;0.93;;;0.67;;
19402;SDS011;9837;48.888;8.998;2023-12-22T16:15:58;0.67;;;0.67;;
19402;SDS011;9837;48.888;8.998;2023-12-22T16:18:24;1.00;;;0.60;;
19402;SDS011;9837;48.888;8.998;2023-12-22T16:20:50;0.73;;;0.60;;
19402;SDS011;9837;48.888;8.998;2023-12-22T16:23:16;0.83;;;0.67;;
19402;SDS011;9837;48.888;8.998;2023-12-22T16:25:50;1.80;;;1.40;;
19402;SDS011;9837;48.888;8.998;2023-12-22T16:28:17;0.80;;;0.70;;
19402;SDS011;9837;48.888;8.998;2023-12-22T16:30:43;0.80;;;0.80;;
19402;SDS011;9837;48.888;8.998;2023-12-22T16:33:09;13.63;;;8.77;;
19402;SDS011;9837;48.888;8.998;2023-12-22T16:35:35;5.27;;;3.73;;
19402;SDS011;9837;48.888;8.998;2023-12-22T16:38:02;2.10;;;1.60;;
19402;SDS011;9837;48.888;8.998;2023-12-22T16:40:28;1.10;;;1.10;;
19402;SDS011;9837;48.888;8.998;2023-12-22T16:42:54;1.00;;;0.90;;
19402;SDS011;9837;48.888;8.998;2023-12-22T16:45:20;2.07;;;1.13;;
19402;SDS011;9837;48.888;8.998;2023-12-22T16:47:46;1.20;;;1.10;;
19402;SDS011;9837;48.888;8.998;2023-12-22T16:50:12;1.93;;;1.27;;
19402;SDS011;9837;48.888;8.998;2023-12-22T16:52:38;2.77;;;0.90;;
19402;SDS011;9837;48.888;8.998;2023-12-22T16:55:04;1.90;;;0.80;;
19402;SDS011;9837;48.888;8.998;2023-12-22T16:57:42;2.53;;;1.00;;
19402;SDS011;9837;48.888;8.998;2023-12-22T17:00:09;0.93;;;0.83;;
19402;SDS011;9837;48.888;8.998;2023-12-22T17:02:35;1.40;;;0.80;;
19402;SDS011;9837;48.888;8.998;2023-12-22T17:05:01;1.13;;;0.90;;
19402;SDS011;9837;48.888;8.998;2023-12-22T17:07:27;1.17;;;1.07;;
19402;SDS011;9837;48.888;8.998;2023-12-22T17:09:53;2.13;;;0.83;;
19402;SDS011;9837;48.888;8.998;2023-12-22T17:12:26;1.00;;;0.80;;
19402;SDS011;9837;48.888;8.998;2023-12-22T17:14:52;1.40;;;0.93;;
19402;SDS011;9837;48.888;8.998;2023-12-22T17:17:20;1.37;;;0.90;;
19402;SDS011;9837;48.888;8.998;2023-12-22T17:19:49;1.20;;;0.97;;
19402;SDS011;9837;48.888;8.998;2023-12-22T17:22:15;0.80;;;0.77;;
19402;SDS011;9837;48.888;8.998;2023-12-22T17:24:41;3.63;;;1.30;;
19402;SDS011;9837;48.888;8.998;2023-12-22T17:27:08;1.00;;;1.00;;
19402;SDS011;9837;48.888;8.998;2023-12-22T17:29:34;2.00;;;1.30;;
19402;SDS011;9837;48.888;8.998;2023-12-22T17:32:00;4.10;;;1.10;;
19402;SDS011;9837;48.888;8.998;2023-12-22T17:34:32;1.47;;;0.97;;
19402;SDS011;9837;48.888;8.998;2023-12-22T17:36:58;1.53;;;0.97;;
19402;SDS011;9837;48.888;8.998;2023-12-22T17:39:29;1.27;;;1.07;;
19402;SDS011;9837;48.888;8.998;2023-12-22T17:41:59;1.80;;;1.10;;
19402;SDS011;9837;48.888;8.998;2023-12-22T17:44:25;2.77;;;1.20;;
19402;SDS011;9837;48.888;8.998;2023-12-22T17:46:54;2.03;;;0.93;;
19402;SDS011;9837;48.888;8.998;2023-12-22T17:49:23;3.03;;;1.20;;
19402;SDS011;9837;48.888;8.998;2023-12-22T17:51:51;3.73;;;1.03;;
19402;SDS011;9837;48.888;8.998;2023-12-22T17:54:29;1.53;;;1.43;;
19402;SDS011;9837;48.888;8.998;2023-12-22T17:56:55;2.20;;;1.63;;
19402;SDS011;9837;48.888;8.998;2023-12-22T17:59:21;2.53;;;1.30;;
19402;SDS011;9837;48.888;8.998;2023-12-22T18:01:47;3.93;;;1.50;;
19402;SDS011;9837;48.888;8.998;2023-12-22T18:04:14;1.27;;;1.17;;
19402;SDS011;9837;48.888;8.998;2023-12-22T18:06:40;1.40;;;1.30;;
19402;SDS011;9837;48.888;8.998;2023-12-22T18:09:06;1.23;;;1.10;;
19402;SDS011;9837;48.888;8.998;2023-12-22T18:11:38;1.97;;;0.90;;
19402;SDS011;9837;48.888;8.998;2023-12-22T18:14:08;1.77;;;1.20;;
19402;SDS011;9837;48.888;8.998;2023-12-22T18:16:43;1.87;;;1.20;;
19402;SDS011;9837;48.888;8.998;2023-12-22T18:19:09;2.13;;;1.20;;
19402;SDS011;9837;48.888;8.998;2023-12-22T18:21:35;2.20;;;1.00;;
19402;SDS011;9837;48.888;8.998;2023-12-22T18:24:02;2.50;;;1.10;;
19402;SDS011;9837;48.888;8.998;2023-12-22T18:26:28;1.17;;;0.90;;
19402;SDS011;9837;48.888;8.998;2023-12-22T18:28:54;4.67;;;1.03;;
19402;SDS011;9837;48.888;8.998;2023-12-22T18:31:21;2.27;;;1.10;;
19402;SDS011;9837;48.888;8.998;2023-12-22T18:33:47;3.07;;;1.10;;
19402;SDS011;9837;48.888;8.998;2023-12-22T18:36:13;1.53;;;0.87;;
19402;SDS011;9837;48.888;8.998;2023-12-22T18:38:39;3.50;;;1.10;;
19402;SDS011;9837;48.888;8.998;2023-12-22T18:41:05;2.30;;;1.17;;
19402;SDS011;9837;48.888;8.998;2023-12-22T18:43:31;0.67;;;0.60;;
19402;SDS011;9837;48.888;8.998;2023-12-22T18:45:57;1.10;;;1.00;;
19402;SDS011;9837;48.888;8.998;2023-12-22T18:48:23;1.10;;;0.90;;
19402;SDS011;9837;48.888;8.998;2023-12-22T18:50:49;0.73;;;0.73;;
19402;SDS011;9837;48.888;8.998;2023-12-22T18:53:15;2.10;;;1.03;;
19402;SDS011;9837;48.888;8.998;2023-12-22T18:55:41;2.27;;;1.00;;
19402;SDS011;9837;48.888;8.998;2023-12-22T18:58:07;6.10;;;0.60;;
19402;SDS011;9837;48.888;8.998;2023-12-22T19:00:33;1.67;;;0.80;;
19402;SDS011;9837;48.888;8.998;2023-12-22T19:02:59;2.30;;;0.93;;
19402;SDS011;9837;48.888;8.998;2023-12-22T19:05:25;2.40;;;0.77;;
19402;SDS011;9837;48.888;8.998;2023-12-22T19:07:51;1.10;;;1.00;;
19402;SDS011;9837;48.888;8.998;2023-12-22T19:10:17;1.40;;;0.80;;
19402;SDS011;9837;48.888;8.998;2023-12-22T19:12:43;1.67;;;1.10;;
19402;SDS011;9837;48.888;8.998;2023-12-22T19:15:11;1.43;;;0.87;;
19402;SDS011;9837;48.888;8.998;2023-12-22T19:17:37;1.87;;;0.83;;
19402;SDS011;9837;48.888;8.998;2023-12-22T19:20:04;1.00;;;0.80;;
19402;SDS011;9837;48.888;8.998;2023-12-22T19:22:30;2.70;;;1.10;;
19402;SDS011;9837;48.888;8.998;2023-12-22T19:24:56;1.37;;;1.13;;
19402;SDS011;9837;48.888;8.998;2023-12-22T19:27:23;3.53;;;1.13;;
19402;SDS011;9837;48.888;8.998;2023-12-22T19:29:49;1.83;;;1.00;;
19402;SDS011;9837;48.888;8.998;2023-12-22T19:32:16;1.97;;;0.90;;
19402;SDS011;9837;48.888;8.998;2023-12-22T19:34:42;3.57;;;1.23;;
19402;SDS011;9837;48.888;8.998;2023-12-22T19:37:08;1.23;;;0.87;;
19402;SDS011;9837;48.888;8.998;2023-12-22T19:39:34;2.70;;;1.10;;
19402;SDS011;9837;48.888;8.998;2023-12-22T19:42:00;2.60;;;1.20;;
19402;SDS011;9837;48.888;8.998;2023-12-22T19:44:26;1.30;;;0.93;;
19402;SDS011;9837;48.888;8.998;2023-12-22T19:46:52;2.90;;;1.03;;
19402;SDS011;9837;48.888;8.998;2023-12-22T19:49:18;2.20;;;1.20;;